Time;durP1;ratioP1;P1;durP2;ratioP2;P2;SDS_P1;SDS_P2;PMS_P1;PMS_P2;Temp;Humidity;BMP_temperature;BMP_pressure;BME280_temperature;BME280_humidity;BME280_pressure;Samples;Min_cycle;Max_cycle;Signal;HPM_P1;HPM_P2
2021/06/06 00:09:09;;;;;;;29.95;18.13;;;;;;;16.26;100.00;100840.50;20956720;28;20052;-67
2021/06/06 00:19:11;;;;;;;33.30;18.77;;;;;;;16.12;100.00;100846.78;21000843;28;20068;-69
2021/06/06 00:29:13;;;;;;;30.92;17.92;;;;;;;16.11;100.00;100855.63;20991564;28;20071;-69
2021/06/06 00:39:15;;;;;;;24.27;16.42;;;;;;;16.00;100.00;100852.91;20610591;28;20051;-69
2021/06/06 00:49:18;;;;;;;25.38;15.80;;;;;;;15.94;100.00;100856.00;20574997;28;20557;-68
2021/06/06 00:59:22;;;;;;;24.50;15.43;;;;;;;15.91;100.00;100855.34;20503742;28;20055;-68
2021/06/06 01:09:25;;;;;;;21.33;14.20;;;;;;;15.89;100.00;100851.97;20886207;28;20098;-69
2021/06/06 01:19:41;;;;;;;23.02;14.60;;;;;;;15.91;100.00;100855.34;20922809;28;20052;-67
2021/06/06 01:29:53;;;;;;;24.05;14.50;;;;;;;15.85;100.00;100848.69;20986973;28;20056;-69
2021/06/06 01:40:18;;;;;;;22.85;13.18;;;;;;;15.79;100.00;100835.94;20578921;28;20097;-69
2021/06/06 01:50:28;;;;;;;24.13;14.73;;;;;;;15.70;100.00;100832.09;20574713;28;20046;-68
2021/06/06 02:00:37;;;;;;;23.23;13.52;;;;;;;15.65;100.00;100838.63;20583718;28;20045;-69
2021/06/06 02:10:44;;;;;;;25.70;14.98;;;;;;;15.61;100.00;100818.69;20992309;28;20048;-69
2021/06/06 02:20:49;;;;;;;25.25;14.95;;;;;;;15.66;100.00;100821.84;20985311;28;20482;-68
2021/06/06 02:30:54;;;;;;;;;;;;;;;15.61;100.00;100831.88;20952135;28;20141;-69
2021/06/06 02:41:06;;;;;;;27.13;16.07;;;;;;;15.64;100.00;100822.00;20569857;28;19926;-69
2021/06/06 02:51:22;;;;;;;30.98;17.33;;;;;;;15.65;100.00;100822.81;20562106;28;20051;-67
2021/06/06 03:01:32;;;;;;;29.58;17.10;;;;;;;15.72;100.00;100814.38;20544425;28;20049;-68
2021/06/06 03:11:36;;;;;;;28.60;17.67;;;;;;;15.74;100.00;100816.91;20904812;28;20487;-68
2021/06/06 03:21:42;;;;;;;32.17;19.02;;;;;;;15.74;100.00;100817.78;20922979;28;20052;-68
2021/06/06 03:31:53;;;;;;;36.38;19.88;;;;;;;15.76;100.00;100817.63;20914945;28;20536;-68
2021/06/06 03:41:57;;;;;;;35.55;19.17;;;;;;;15.74;100.00;100822.19;20564857;28;20611;-68
2021/06/06 03:52:00;;;;;;;32.33;17.60;;;;;;;15.70;100.00;100820.69;20556941;28;20051;-69
2021/06/06 04:02:02;;;;;;;34.72;18.23;;;;;;;15.70;100.00;100824.19;20647786;28;20044;-68
2021/06/06 04:12:08;;;;;;;29.67;17.25;;;;;;;15.63;100.00;100815.00;20983289;22;20083;-82
2021/06/06 04:22:10;;;;;;;29.15;17.90;;;;;;;15.64;100.00;100818.50;20954675;28;20053;-82
2021/06/06 04:32:16;;;;;;;31.38;18.13;;;;;;;15.62;100.00;100808.03;20903475;28;20075;-83
2021/06/06 04:42:20;;;;;;;33.38;19.55;;;;;;;15.62;100.00;100817.75;20907382;28;20049;-82
2021/06/06 04:52:22;;;;;;;35.80;19.63;;;;;;;15.61;100.00;100810.78;20938371;28;20045;-82
2021/06/06 05:02:24;;;;;;;35.08;20.23;;;;;;;15.57;100.00;100815.44;20919369;28;20572;-82
2021/06/06 05:12:25;;;;;;;34.88;19.80;;;;;;;15.52;100.00;100803.50;20924182;28;20068;-79
2021/06/06 05:22:27;;;;;;;29.83;17.33;;;;;;;15.61;100.00;100810.78;20946511;28;20501;-80
2021/06/06 05:32:29;;;;;;;33.33;17.77;;;;;;;15.56;100.00;100823.44;20920369;28;20057;-79
2021/06/06 05:42:31;;;;;;;26.90;15.70;;;;;;;15.58;100.00;100821.56;20923161;28;20056;-80
2021/06/06 05:52:33;;;;;;;31.60;17.70;;;;;;;15.54;100.00;100825.34;20945057;28;20076;-79
2021/06/06 06:02:35;;;;;;;23.85;14.50;;;;;;;15.70;100.00;100825.97;20917224;28;20091;-80
2021/06/06 06:12:37;;;;;;;24.95;14.80;;;;;;;15.67;100.00;100823.56;20914910;28;20049;-80
2021/06/06 06:22:39;;;;;;;23.27;14.88;;;;;;;15.69;100.00;100830.44;20951426;28;20106;-80
2021/06/06 06:32:41;;;;;;;24.60;14.75;;;;;;;15.74;100.00;100843.31;20914678;28;20053;-80
2021/06/06 06:42:43;;;;;;;22.27;13.85;;;;;;;15.85;100.00;100842.56;20911006;28;20103;-80
2021/06/06 06:52:45;;;;;;;30.70;16.80;;;;;;;15.92;100.00;100852.59;20943074;28;20106;-80
2021/06/06 07:02:47;;;;;;;23.77;14.70;;;;;;;16.01;100.00;100851.94;20937302;28;20040;-80
2021/06/06 07:12:49;;;;;;;25.17;15.35;;;;;;;16.11;100.00;100862.72;21020948;28;20413;-80
2021/06/06 07:22:51;;;;;;;20.38;12.52;;;;;;;16.18;100.00;100864.84;20987773;28;20114;-80
2021/06/06 07:32:53;;;;;;;23.13;13.63;;;;;;;16.30;100.00;100862.28;20946968;28;20044;-80
2021/06/06 07:42:56;;;;;;;22.10;13.63;;;;;;;16.20;100.00;100872.66;21030852;28;20078;-80
2021/06/06 07:52:57;;;;;;;24.15;15.48;;;;;;;16.25;100.00;100881.09;20985939;28;20075;-80
2021/06/06 08:03:00;;;;;;;27.08;15.80;;;;;;;16.53;100.00;100874.69;20987419;28;20048;-80
2021/06/06 08:13:03;;;;;;;26.65;16.27;;;;;;;16.76;100.00;100871.28;20997827;28;20067;-81
2021/06/06 08:23:08;;;;;;;26.38;15.52;;;;;;;16.96;100.00;100875.97;20983994;28;20060;-80
2021/06/06 08:33:11;;;;;;;34.70;22.63;;;;;;;17.15;100.00;100869.31;20927076;28;20560;-81
2021/06/06 08:43:40;;;;;;;34.90;21.90;;;;;;;17.01;100.00;100867.72;20925387;28;20141;-80
2021/06/06 08:54:13;;;;;;;28.75;17.67;;;;;;;16.90;100.00;100865.84;20952013;28;20102;-79
2021/06/06 09:04:25;;;;;;;45.65;26.80;;;;;;;17.35;100.00;100868.69;20921942;28;20114;-80
2021/06/06 09:14:28;;;;;;;39.47;24.13;;;;;;;17.43;100.00;100876.88;20957293;28;20545;-81
2021/06/06 09:24:41;;;;;;;43.25;26.77;;;;;;;17.17;100.00;100870.88;20994081;28;20045;-81
2021/06/06 09:35:07;;;;;;;50.40;28.52;;;;;;;17.67;100.00;100875.09;20931547;28;20049;-81
2021/06/06 09:45:09;;;;;;;37.22;23.20;;;;;;;18.11;100.00;100884.03;20928638;28;20072;-81
2021/06/06 09:55:29;;;;;;;40.42;25.10;;;;;;;18.17;100.00;100886.22;20988771;28;20194;-81
2021/06/06 10:05:34;;;;;;;39.47;24.92;;;;;;;18.19;100.00;100885.13;20967969;28;20045;-82
2021/06/06 10:15:43;;;;;;;41.60;27.02;;;;;;;18.18;100.00;100885.28;21022128;28;20040;-82
2021/06/06 10:25:53;;;;;;;41.28;26.42;;;;;;;18.50;100.00;100874.75;20988043;28;20056;-82
2021/06/06 10:35:58;;;;;;;39.45;25.10;;;;;;;19.34;96.79;100882.06;20920739;28;20526;-83
2021/06/06 10:46:11;;;;;;;35.13;22.27;;;;;;;19.69;92.35;100887.94;20919479;28;20045;-82
2021/06/06 10:56:28;;;;;;;38.97;26.15;;;;;;;19.89;91.80;100871.16;20947385;28;20056;-83
2021/06/06 11:06:33;;;;;;;35.78;23.63;;;;;;;20.90;87.07;100873.78;20919040;28;20037;-83
2021/06/06 11:16:38;;;;;;;32.75;22.48;;;;;;;20.17;84.02;100863.44;20966342;28;20103;-83
2021/06/06 11:26:44;;;;;;;34.95;24.02;;;;;;;19.77;90.15;100845.63;20942004;28;20055;-83
2021/06/06 11:36:46;;;;;;;35.70;22.13;;;;;;;21.18;86.03;100838.38;20915673;28;20049;-84
2021/06/06 11:46:56;;;;;;;29.05;19.70;;;;;;;21.53;82.15;100828.97;20945737;28;20068;-84
2021/06/06 11:57:07;;;;;;;32.78;21.92;;;;;;;21.13;83.10;100824.59;20934942;28;20087;-84
2021/06/06 12:07:28;;;;;;;29.00;19.77;;;;;;;21.88;79.63;100813.16;20926681;28;20068;-83
2021/06/06 12:17:30;;;;;;;23.83;16.80;;;;;;;21.77;79.62;100803.53;20923440;28;20095;-83
2021/06/06 12:27:33;;;;;;;22.08;15.73;;;;;;;21.18;80.99;100801.09;20943562;28;20099;-83
2021/06/06 12:37:37;;;;;;;27.70;19.75;;;;;;;20.82;82.02;100801.78;20927064;28;20075;-84
2021/06/06 12:47:42;;;;;;;28.97;20.30;;;;;;;19.87;85.48;100808.47;20924281;28;20049;-83
2021/06/06 12:57:58;;;;;;;22.52;15.45;;;;;;;20.47;88.23;100812.91;20945661;28;20041;-84
2021/06/06 13:08:04;;;;;;;25.52;17.15;;;;;;;21.01;84.58;100808.94;21047244;28;20044;-83
2021/06/06 13:18:17;;;;;;;21.15;15.57;;;;;;;20.99;84.76;100805.56;21099129;28;20077;-82
2021/06/06 13:28:25;;;;;;;28.60;18.40;;;;;;;20.71;86.55;100802.75;21023629;28;20052;-83
2021/06/06 13:38:28;;;;;;;23.95;16.80;;;;;;;20.42;91.39;100802.69;20927283;28;20053;-83
2021/06/06 13:48:30;;;;;;;21.70;15.35;;;;;;;20.41;91.72;100800.19;20922405;28;20132;-82
2021/06/06 13:58:36;;;;;;;25.20;17.45;;;;;;;20.07;93.86;100807.59;20971039;28;20080;-82
2021/06/06 14:08:38;;;;;;;27.08;17.88;;;;;;;19.90;95.57;100811.72;21006142;28;20048;-82
2021/06/06 14:18:41;;;;;;;25.50;17.25;;;;;;;19.79;96.87;100810.97;20956603;28;20041;-82
2021/06/06 14:28:43;;;;;;;25.00;16.70;;;;;;;19.65;97.49;100814.81;20977612;28;20072;-83
2021/06/06 14:38:44;;;;;;;24.15;16.85;;;;;;;19.55;98.66;100801.47;21009410;28;20054;-82
2021/06/06 14:48:46;;;;;;;27.35;18.20;;;;;;;19.43;100.00;100791.84;20998402;28;20173;-82
2021/06/06 14:58:48;;;;;;;30.40;20.67;;;;;;;19.54;100.00;100806.91;20962803;28;20071;-82
2021/06/06 15:08:51;;;;;;;25.65;17.70;;;;;;;19.53;98.90;100798.09;20928114;28;20522;-82
2021/06/06 15:18:53;;;;;;;26.08;17.90;;;;;;;19.49;99.92;100795.84;20985835;28;20135;-82
2021/06/06 15:28:56;;;;;;;29.55;20.02;;;;;;;19.40;98.75;100792.09;20959678;28;20051;-82
2021/06/06 15:39:00;;;;;;;25.42;18.33;;;;;;;19.34;96.13;100797.94;20910728;28;20422;-82
2021/06/06 15:49:03;;;;;;;20.80;13.85;;;;;;;19.21;91.31;100797.28;20906388;28;20045;-82
2021/06/06 15:59:05;;;;;;;17.92;13.43;;;;;;;19.30;91.12;100785.88;20929386;28;20041;-82
2021/06/06 16:09:09;;;;;;;17.50;12.65;;;;;;;19.27;88.00;100787.97;20918472;28;20110;-82
2021/06/06 16:19:11;;;;;;;15.10;11.15;;;;;;;19.13;82.59;100779.34;20384306;28;15448341;-81
2021/06/06 16:29:12;;;;;;;15.57;10.60;;;;;;;19.13;82.07;100781.16;20963010;28;20045;-81
2021/06/06 16:39:14;;;;;;;13.88;10.02;;;;;;;19.16;82.54;100767.63;20920878;28;20094;-82
2021/06/06 16:49:16;;;;;;;16.52;9.88;;;;;;;18.80;81.85;100772.38;20919961;28;20122;-81
2021/06/06 16:59:18;;;;;;;14.30;10.02;;;;;;;18.87;81.44;100777.19;20942990;28;20045;-81
2021/06/06 17:09:19;;;;;;;14.60;10.27;;;;;;;18.98;80.75;100771.84;20927897;28;20049;-80
2021/06/06 17:19:21;;;;;;;13.85;9.65;;;;;;;19.00;80.11;100772.53;20929646;28;20074;-81
2021/06/06 17:29:24;;;;;;;11.70;8.73;;;;;;;18.90;79.46;100782.22;20950864;28;20045;-80
2021/06/06 17:39:26;;;;;;;13.02;9.00;;;;;;;18.80;78.94;100783.00;20951112;28;20047;-81
2021/06/06 17:49:28;;;;;;;14.18;9.30;;;;;;;18.65;81.31;100789.56;20975812;28;20102;-81
2021/06/06 17:59:29;;;;;;;16.25;9.45;;;;;;;18.55;80.99;100793.91;20981946;28;20067;-81
2021/06/06 18:09:32;;;;;;;14.60;9.30;;;;;;;18.57;79.22;100799.09;20569567;28;20104;-81
2021/06/06 18:19:33;;;;;;;12.35;8.43;;;;;;;18.36;80.84;100809.59;20607637;28;20088;-80
2021/06/06 18:29:36;;;;;;;15.73;9.95;;;;;;;18.13;80.28;100808.78;20606935;28;20096;-82
2021/06/06 18:39:38;;;;;;;20.63;12.15;;;;;;;17.75;82.75;100808.28;20627663;28;20055;-80
2021/06/06 18:49:40;;;;;;;23.50;14.55;;;;;;;17.55;85.24;100820.38;20590966;28;20039;-80
2021/06/06 18:59:43;;;;;;;24.55;14.93;;;;;;;17.36;86.31;100820.94;20602156;28;20068;-80
2021/06/06 19:09:46;;;;;;;24.80;16.05;;;;;;;17.15;87.38;100813.78;20660478;28;20047;-80
2021/06/06 19:19:48;;;;;;;27.58;16.77;;;;;;;16.91;89.37;100822.59;20686835;28;20184;-80
2021/06/06 19:29:50;;;;;;;26.85;17.08;;;;;;;16.82;90.60;100811.81;20694104;28;20047;-82
2021/06/06 19:39:54;;;;;;;30.42;17.38;;;;;;;16.84;90.99;100831.06;20677747;28;20054;-80
2021/06/06 19:49:56;;;;;;;26.83;16.27;;;;;;;16.94;91.00;100843.50;20633293;28;20070;-81
2021/06/06 19:59:59;;;;;;;30.85;18.27;;;;;;;16.93;91.05;100847.09;20636093;28;20129;-80
2021/06/06 20:10:04;;;;;;;31.10;17.85;;;;;;;16.85;91.50;100854.75;21049430;28;20101;-80
2021/06/06 20:20:08;;;;;;;31.20;17.77;;;;;;;16.80;91.99;100859.53;20994762;28;20087;-82
2021/06/06 20:30:17;;;;;;;32.75;18.27;;;;;;;16.75;92.64;100853.75;20991915;28;20048;-81
2021/06/06 20:40:19;;;;;;;32.40;19.08;;;;;;;16.74;92.66;100859.97;20979288;28;20702;-81
2021/06/06 20:50:23;;;;;;;31.15;17.75;;;;;;;16.75;93.20;100859.03;20981817;28;20048;-81
2021/06/06 21:00:33;;;;;;;34.10;20.63;;;;;;;16.71;92.32;100868.13;20979357;28;20041;-81
2021/06/06 21:10:35;;;;;;;34.47;19.65;;;;;;;16.66;92.47;100867.59;20980618;28;20053;-81
2021/06/06 21:20:40;;;;;;;34.97;20.13;;;;;;;16.67;92.38;100859.56;20922757;28;20118;-82
2021/06/06 21:30:42;;;;;;;31.35;17.73;;;;;;;16.67;92.56;100877.22;20947338;28;20045;-82
2021/06/06 21:40:45;;;;;;;34.10;19.13;;;;;;;16.65;92.30;100858.00;20974436;28;20110;-82
2021/06/06 21:50:48;;;;;;;39.10;20.25;;;;;;;16.73;92.51;100863.56;21010276;28;20048;-81
2021/06/06 22:00:54;;;;;;;38.05;21.30;;;;;;;16.81;91.81;100847.97;20953770;28;20087;-81
2021/06/06 22:11:03;;;;;;;31.67;18.63;;;;;;;16.62;93.48;100845.00;21005015;28;20125;-82
2021/06/06 22:21:42;;;;;;;32.60;19.08;;;;;;;16.60;94.36;100833.72;21023370;28;20048;-82
2021/06/06 22:32:22;;;;;;;33.88;19.67;;;;;;;16.58;95.79;100839.09;20960512;28;20458;-82
2021/06/06 22:43:01;;;;;;;36.28;19.73;;;;;;;16.57;96.64;100836.53;20920999;28;20072;-82
2021/06/06 22:53:41;;;;;;;32.63;19.92;;;;;;;16.59;95.13;100832.88;20920473;28;20044;-82
2021/06/06 23:04:20;;;;;;;32.75;19.83;;;;;;;16.47;96.21;100828.41;20833555;28;20408;-82
2021/06/06 23:14:27;;;;;;;38.88;20.90;;;;;;;16.54;96.35;100816.47;20571354;28;20047;-82
2021/06/06 23:24:30;;;;;;;33.47;20.05;;;;;;;16.41;96.70;100806.88;20606965;28;20094;-82
2021/06/06 23:34:33;;;;;;;35.20;19.85;;;;;;;16.41;96.09;100806.88;20759564;28;20036;-81
2021/06/06 23:44:36;;;;;;;33.30;19.58;;;;;;;16.35;96.17;100807.31;20991480;28;20052;-82
2021/06/06 23:54:38;;;;;;;33.33;19.02;;;;;;;16.41;96.16;100806.88;20980837;28;20052;-81
